Time;durP1;ratioP1;P1;durP2;ratioP2;P2;SDS_P1;SDS_P2;PMS_P1;PMS_P2;Temp;Humidity;BMP_temperature;BMP_pressure;BME280_temperature;BME280_humidity;BME280_pressure;Samples;Min_cycle;Max_cycle;Signal;HPM_P1;HPM_P2
2024/04/08 00:01:26;;;;;;;5.85;1.83;;;;;;;;;;5129354;27;20066;-75
2024/04/08 00:03:54;;;;;;;3.60;1.80;;;;;;;;;;5123172;27;20043;-76
2024/04/08 00:06:23;;;;;;;2.95;1.67;;;;;;;;;;5121608;27;20039;-75
2024/04/08 00:08:52;;;;;;;7.75;1.40;;;;;;;;;;5122852;27;20061;-76
2024/04/08 00:11:20;;;;;;;3.25;1.83;;;;;;;;;;5124027;27;20824;-75
2024/04/08 00:13:50;;;;;;;2.60;1.80;;;;;;;;;;5123716;27;20422;-75
2024/04/08 00:16:18;;;;;;;4.85;1.77;;;;;;;;;;5123467;27;20054;-76
2024/04/08 00:18:47;;;;;;;2.10;1.52;;;;;;;;;;5119918;27;20051;-75
2024/04/08 00:21:15;;;;;;;5.68;1.85;;;;;;;;;;5123921;27;20039;-75
2024/04/08 00:23:44;;;;;;;5.35;1.80;;;;;;;;;;5088906;27;20043;-74
2024/04/08 00:26:12;;;;;;;3.42;1.92;;;;;;;;;;5123693;27;20050;-75
2024/04/08 00:28:41;;;;;;;6.13;1.60;;;;;;;;;;5123280;27;20061;-77
2024/04/08 00:31:10;;;;;;;2.10;1.70;;;;;;;;;;5105931;27;20054;-74
2024/04/08 00:33:39;;;;;;;6.30;1.90;;;;;;;;;;5123483;27;20054;-74
2024/04/08 00:36:08;;;;;;;2.38;1.63;;;;;;;;;;5105539;27;20051;-74
2024/04/08 00:38:37;;;;;;;;;;;;;;;;;;5123496;27;20043;-74
2024/04/08 00:41:05;;;;;;;5.32;1.70;;;;;;;;;;5123551;27;19946;-74
2024/04/08 00:43:34;;;;;;;2.47;1.70;;;;;;;;;;5123077;27;20039;-75
2024/04/08 00:46:02;;;;;;;3.78;1.50;;;;;;;;;;5123172;27;20493;-74
2024/04/08 00:48:31;;;;;;;3.13;1.70;;;;;;;;;;5123540;27;20048;-74
2024/04/08 00:50:59;;;;;;;2.13;1.35;;;;;;;;;;5122340;27;20035;-74
2024/04/08 00:53:28;;;;;;;2.25;1.70;;;;;;;;;;5122333;27;20053;-74
2024/04/08 00:55:57;;;;;;;4.78;2.00;;;;;;;;;;5122949;27;20042;-74
2024/04/08 00:58:25;;;;;;;2.90;1.58;;;;;;;;;;5122316;27;20363;-74
2024/04/08 01:00:54;;;;;;;3.72;1.52;;;;;;;;;;5122980;27;20043;-74
2024/04/08 01:03:23;;;;;;;4.75;1.65;;;;;;;;;;5123414;27;20039;-74
2024/04/08 01:05:53;;;;;;;3.83;1.70;;;;;;;;;;5123698;27;20408;-74
2024/04/08 01:08:21;;;;;;;3.38;1.60;;;;;;;;;;5122861;27;20055;-73
2024/04/08 01:10:49;;;;;;;3.10;1.45;;;;;;;;;;5121957;27;20050;-74
2024/04/08 01:13:18;;;;;;;1.48;1.23;;;;;;;;;;5122358;27;20751;-74
2024/04/08 01:15:47;;;;;;;1.60;1.50;;;;;;;;;;5121801;27;20402;-74
2024/04/08 01:18:16;;;;;;;1.60;1.15;;;;;;;;;;5121660;27;20039;-75
2024/04/08 01:20:44;;;;;;;2.00;1.40;;;;;;;;;;5122262;27;20046;-75
2024/04/08 01:23:19;;;;;;;3.17;1.63;;;;;;;;;;5121336;27;20796;-75
2024/04/08 01:25:48;;;;;;;2.55;1.50;;;;;;;;;;5102963;27;20055;-75
2024/04/08 01:28:16;;;;;;;2.25;1.23;;;;;;;;;;5121434;27;20122;-76
2024/04/08 01:30:46;;;;;;;4.22;1.50;;;;;;;;;;5121896;27;20532;-74
2024/04/08 01:33:15;;;;;;;2.15;1.30;;;;;;;;;;5122227;27;20046;-75
2024/04/08 01:35:43;;;;;;;4.75;1.08;;;;;;;;;;5121837;27;20050;-75
2024/04/08 01:38:12;;;;;;;3.35;1.15;;;;;;;;;;5121777;27;20046;-75
2024/04/08 01:40:40;;;;;;;2.35;1.10;;;;;;;;;;5121503;27;20035;-75
2024/04/08 01:43:09;;;;;;;2.90;1.13;;;;;;;;;;5118660;27;20498;-76
2024/04/08 01:45:38;;;;;;;5.50;1.45;;;;;;;;;;5121173;27;20054;-76
2024/04/08 01:48:07;;;;;;;4.38;1.40;;;;;;;;;;5121311;27;20047;-75
2024/04/08 01:50:36;;;;;;;1.40;1.13;;;;;;;;;;5121512;27;20050;-73
2024/04/08 01:53:04;;;;;;;2.42;1.00;;;;;;;;;;5121901;27;20043;-73
2024/04/08 01:55:32;;;;;;;2.40;1.17;;;;;;;;;;5121767;27;20502;-73
2024/04/08 01:58:01;;;;;;;1.65;1.30;;;;;;;;;;5121142;27;20736;-74
2024/04/08 02:00:30;;;;;;;1.45;1.13;;;;;;;;;;5105196;27;20043;-73
2024/04/08 02:02:59;;;;;;;2.25;1.33;;;;;;;;;;5120937;27;20050;-73
2024/04/08 02:05:28;;;;;;;1.55;1.17;;;;;;;;;;5121453;27;20050;-73
2024/04/08 02:07:56;;;;;;;2.83;1.50;;;;;;;;;;5121056;27;20046;-73
2024/04/08 02:10:25;;;;;;;1.63;1.20;;;;;;;;;;5121846;27;20062;-73
2024/04/08 02:12:53;;;;;;;2.72;1.02;;;;;;;;;;5121548;27;20069;-73
2024/04/08 02:15:22;;;;;;;1.60;1.20;;;;;;;;;;5120892;28;20126;-73
2024/04/08 02:17:51;;;;;;;2.95;1.23;;;;;;;;;;5121252;27;20050;-74
2024/04/08 02:20:19;;;;;;;;;;;;;;;;;;5121877;28;20050;-74
2024/04/08 02:22:47;;;;;;;3.40;1.17;;;;;;;;;;5121856;27;19924;-75
2024/04/08 02:25:16;;;;;;;1.10;0.80;;;;;;;;;;5121494;27;20402;-74
2024/04/08 02:27:45;;;;;;;2.97;1.10;;;;;;;;;;5121804;28;20050;-74
2024/04/08 02:30:14;;;;;;;3.97;1.20;;;;;;;;;;5121884;28;20050;-74
2024/04/08 02:32:43;;;;;;;3.28;1.05;;;;;;;;;;5105174;28;20043;-74
2024/04/08 02:35:12;;;;;;;6.53;1.60;;;;;;;;;;5121350;28;20051;-73
2024/04/08 02:37:42;;;;;;;2.47;0.95;;;;;;;;;;5121249;27;20046;-74
2024/04/08 02:40:10;;;;;;;2.50;1.08;;;;;;;;;;5121584;27;20070;-74
2024/04/08 02:42:38;;;;;;;1.42;1.27;;;;;;;;;;5121370;27;20228;-74
2024/04/08 02:45:07;;;;;;;5.28;1.80;;;;;;;;;;5121370;28;20043;-73
2024/04/08 02:47:37;;;;;;;2.63;1.10;;;;;;;;;;5121420;27;20052;-74
2024/04/08 02:50:05;;;;;;;5.07;1.27;;;;;;;;;;5121439;28;20054;-74
2024/04/08 02:52:33;;;;;;;2.75;1.15;;;;;;;;;;5121403;28;20043;-74
2024/04/08 02:55:02;;;;;;;2.10;0.98;;;;;;;;;;5104539;27;20047;-74
2024/04/08 02:57:30;;;;;;;5.22;1.13;;;;;;;;;;5121704;28;20055;-74
2024/04/08 02:59:59;;;;;;;1.60;0.98;;;;;;;;;;5120852;28;20035;-74
2024/04/08 03:02:27;;;;;;;1.23;1.00;;;;;;;;;;5121063;27;20043;-74
2024/04/08 03:04:56;;;;;;;7.13;1.35;;;;;;;;;;5120607;28;20039;-74
2024/04/08 03:07:24;;;;;;;3.55;1.20;;;;;;;;;;5121337;27;20039;-73
2024/04/08 03:09:54;;;;;;;1.48;1.25;;;;;;;;;;5121423;28;20047;-74
2024/04/08 03:12:24;;;;;;;5.38;1.30;;;;;;;;;;5120520;28;20039;-74
2024/04/08 03:14:52;;;;;;;5.95;1.42;;;;;;;;;;5121118;28;20405;-74
2024/04/08 03:17:21;;;;;;;1.27;1.15;;;;;;;;;;5120992;28;20492;-74
2024/04/08 03:19:58;;;;;;;4.22;1.25;;;;;;;;;;5122573;27;20047;-73
2024/04/08 03:22:26;;;;;;;3.30;0.93;;;;;;;;;;5125546;27;20109;-74
2024/04/08 03:24:55;;;;;;;1.65;1.08;;;;;;;;;;5125074;27;20047;-74
2024/04/08 03:27:25;;;;;;;1.92;1.15;;;;;;;;;;5124835;27;20429;-74
2024/04/08 03:29:53;;;;;;;2.28;1.10;;;;;;;;;;5124333;27;20035;-74
2024/04/08 03:32:23;;;;;;;4.07;1.20;;;;;;;;;;5124319;27;20054;-73
2024/04/08 03:34:51;;;;;;;6.10;1.58;;;;;;;;;;5124499;27;20039;-74
2024/04/08 03:37:25;;;;;;;1.17;1.05;;;;;;;;;;5106879;27;20050;-74
2024/04/08 03:39:53;;;;;;;1.42;1.13;;;;;;;;;;5124679;27;20512;-74
2024/04/08 03:42:22;;;;;;;1.90;1.20;;;;;;;;;;5124411;27;20385;-73
2024/04/08 03:44:52;;;;;;;2.35;1.00;;;;;;;;;;5124194;27;20054;-74
2024/04/08 03:47:19;;;;;;;;;;;;;;;;;;5125399;27;20050;-74
2024/04/08 03:49:53;;;;;;;1.58;1.23;;;;;;;;;;5122152;27;19930;-74
2024/04/08 03:52:22;;;;;;;3.15;1.30;;;;;;;;;;5124172;27;20046;-74
2024/04/08 03:54:50;;;;;;;1.60;1.23;;;;;;;;;;5123725;27;20050;-74
2024/04/08 03:57:20;;;;;;;5.60;1.23;;;;;;;;;;5123447;27;20042;-74
2024/04/08 03:59:48;;;;;;;1.88;1.30;;;;;;;;;;5123621;27;20051;-74
2024/04/08 04:02:16;;;;;;;3.30;1.33;;;;;;;;;;5106368;27;20058;-74
2024/04/08 04:04:44;;;;;;;2.70;1.30;;;;;;;;;;5124087;27;20536;-74
2024/04/08 04:07:13;;;;;;;2.63;1.13;;;;;;;;;;5123532;27;20482;-74
2024/04/08 04:09:42;;;;;;;2.67;1.20;;;;;;;;;;5123647;27;20055;-74
2024/04/08 04:12:11;;;;;;;6.65;1.20;;;;;;;;;;5123676;27;20043;-74
2024/04/08 04:14:39;;;;;;;2.20;1.20;;;;;;;;;;5124451;27;20031;-74
2024/04/08 04:17:07;;;;;;;6.68;1.42;;;;;;;;;;5123798;27;20498;-74
2024/04/08 04:19:35;;;;;;;10.15;1.27;;;;;;;;;;5124164;27;20046;-73
2024/04/08 04:22:05;;;;;;;6.10;1.20;;;;;;;;;;5124018;27;20405;-74
2024/04/08 04:24:34;;;;;;;7.57;1.20;;;;;;;;;;5123618;27;20031;-74
2024/04/08 04:27:03;;;;;;;2.30;1.35;;;;;;;;;;5123604;27;20047;-73
2024/04/08 04:29:31;;;;;;;6.43;1.38;;;;;;;;;;5122821;27;20047;-74
2024/04/08 04:31:59;;;;;;;3.80;1.45;;;;;;;;;;5123391;27;20730;-74
2024/04/08 04:34:27;;;;;;;5.93;1.60;;;;;;;;;;5124017;27;20046;-74
2024/04/08 04:36:56;;;;;;;3.83;1.60;;;;;;;;;;5122978;27;20430;-75
2024/04/08 04:39:25;;;;;;;4.20;1.45;;;;;;;;;;5122663;27;20054;-74
2024/04/08 04:41:55;;;;;;;2.40;1.45;;;;;;;;;;5123105;27;20046;-74
2024/04/08 04:44:23;;;;;;;3.67;1.40;;;;;;;;;;5123098;27;20132;-74
2024/04/08 04:46:54;;;;;;;2.55;1.50;;;;;;;;;;5122525;27;20047;-74
2024/04/08 04:49:22;;;;;;;4.97;1.50;;;;;;;;;;5122814;27;20054;-74
2024/04/08 04:51:50;;;;;;;5.38;1.77;;;;;;;;;;5106136;27;20413;-74
2024/04/08 04:54:19;;;;;;;5.65;1.70;;;;;;;;;;5122800;27;20034;-74
2024/04/08 04:56:48;;;;;;;3.72;1.60;;;;;;;;;;5122520;27;20042;-74
2024/04/08 04:59:16;;;;;;;6.22;1.55;;;;;;;;;;5122586;27;20058;-74
2024/04/08 05:01:44;;;;;;;4.68;1.60;;;;;;;;;;5122887;27;20047;-73
2024/04/08 05:04:13;;;;;;;4.72;1.45;;;;;;;;;;5122321;27;20068;-74
2024/04/08 05:06:42;;;;;;;6.53;1.70;;;;;;;;;;5123104;27;20066;-73
2024/04/08 05:09:10;;;;;;;6.68;1.42;;;;;;;;;;5123365;27;20043;-73
2024/04/08 05:11:39;;;;;;;4.38;1.60;;;;;;;;;;5121566;27;20039;-74
2024/04/08 05:14:07;;;;;;;2.45;1.33;;;;;;;;;;5122169;27;20054;-74
2024/04/08 05:16:36;;;;;;;2.72;1.48;;;;;;;;;;5087856;27;20047;-74
2024/04/08 05:19:04;;;;;;;3.58;1.23;;;;;;;;;;5122106;27;20035;-74
2024/04/08 05:21:32;;;;;;;3.85;1.73;;;;;;;;;;5122497;27;20428;-73
2024/04/08 05:24:01;;;;;;;2.50;1.70;;;;;;;;;;5122506;27;20043;-74
2024/04/08 05:26:30;;;;;;;3.72;1.40;;;;;;;;;;5121911;27;20039;-74
2024/04/08 05:28:58;;;;;;;5.05;1.23;;;;;;;;;;5121883;27;20054;-74
2024/04/08 05:31:27;;;;;;;6.03;1.50;;;;;;;;;;5122224;27;20035;-74
2024/04/08 05:33:55;;;;;;;3.65;1.55;;;;;;;;;;5122177;27;20047;-74
2024/04/08 05:36:24;;;;;;;1.90;1.40;;;;;;;;;;5122916;27;20043;-74
2024/04/08 05:38:53;;;;;;;3.22;1.13;;;;;;;;;;5121820;27;20047;-73
2024/04/08 05:41:22;;;;;;;5.47;1.70;;;;;;;;;;5121517;27;20054;-73
2024/04/08 05:43:50;;;;;;;3.83;1.60;;;;;;;;;;5121792;27;20043;-74
2024/04/08 05:46:18;;;;;;;1.45;1.30;;;;;;;;;;5122003;27;20588;-74
2024/04/08 05:48:47;;;;;;;2.83;1.52;;;;;;;;;;5121927;27;20043;-73
2024/04/08 05:51:15;;;;;;;1.50;1.30;;;;;;;;;;5121911;27;20742;-73
2024/04/08 05:53:44;;;;;;;1.95;1.42;;;;;;;;;;5122102;27;20039;-73
2024/04/08 05:56:13;;;;;;;3.28;1.30;;;;;;;;;;5121688;27;20046;-73
2024/04/08 05:58:41;;;;;;;2.67;1.33;;;;;;;;;;5122320;27;20062;-74
2024/04/08 06:01:09;;;;;;;5.75;1.48;;;;;;;;;;5121517;27;20638;-74
2024/04/08 06:03:38;;;;;;;2.50;1.35;;;;;;;;;;5121674;27;20051;-74
2024/04/08 06:06:07;;;;;;;5.55;1.40;;;;;;;;;;5121489;27;20050;-74
2024/04/08 06:08:35;;;;;;;5.32;1.85;;;;;;;;;;5120710;27;20055;-73
2024/04/08 06:11:05;;;;;;;6.90;1.52;;;;;;;;;;5121670;27;20043;-73
2024/04/08 06:15:21;;;;;;;1.67;1.40;;;;;;;;;;5424295;26;20347;-73
2024/04/08 06:17:53;;;;;;;1.85;1.25;;;;;;;;;;5423797;26;20032;-74
2024/04/08 06:20:25;;;;;;;5.47;1.30;;;;;;;;;;5424357;26;20031;-74
2024/04/08 06:22:56;;;;;;;3.58;1.42;;;;;;;;;;5423961;26;20035;-73
2024/04/08 06:25:26;;;;;;;4.43;1.30;;;;;;;;;;5422017;26;20031;-73
2024/04/08 06:28:01;;;;;;;6.72;1.30;;;;;;;;;;5424523;26;20356;-74
2024/04/08 06:30:32;;;;;;;4.00;1.30;;;;;;;;;;5423467;26;20836;-73
2024/04/08 06:33:03;;;;;;;2.88;1.40;;;;;;;;;;5424000;26;20032;-74
2024/04/08 06:35:33;;;;;;;5.80;1.15;;;;;;;;;;5424832;26;20035;-74
2024/04/08 06:38:05;;;;;;;1.60;1.30;;;;;;;;;;5422146;26;20031;-74
2024/04/08 06:40:35;;;;;;;4.00;1.23;;;;;;;;;;5424102;26;20019;-74
2024/04/08 06:43:06;;;;;;;3.20;1.42;;;;;;;;;;5424127;26;20027;-74
2024/04/08 06:45:36;;;;;;;6.32;1.50;;;;;;;;;;5424269;26;20031;-74
2024/04/08 06:48:06;;;;;;;2.95;1.10;;;;;;;;;;5423915;26;20031;-73
2024/04/08 06:50:38;;;;;;;2.30;1.20;;;;;;;;;;5423738;26;20027;-74
2024/04/08 06:53:08;;;;;;;2.78;1.40;;;;;;;;;;5424625;26;20052;-74
2024/04/08 06:55:38;;;;;;;4.78;1.20;;;;;;;;;;5422034;26;20028;-73
2024/04/08 06:58:12;;;;;;;1.42;1.20;;;;;;;;;;5423867;26;20039;-74
2024/04/08 07:00:43;;;;;;;2.35;1.42;;;;;;;;;;5423701;26;20031;-74
2024/04/08 07:03:15;;;;;;;5.10;1.20;;;;;;;;;;5424009;26;20651;-74
2024/04/08 07:05:46;;;;;;;1.90;1.23;;;;;;;;;;5423780;26;20027;-73
2024/04/08 07:08:17;;;;;;;4.60;1.40;;;;;;;;;;5423400;26;20046;-73
2024/04/08 07:10:47;;;;;;;1.75;1.23;;;;;;;;;;5423479;26;20020;-74
2024/04/08 07:13:18;;;;;;;2.17;1.20;;;;;;;;;;5423854;26;20031;-74
2024/04/08 07:15:54;;;;;;;2.15;1.10;;;;;;;;;;5422784;26;20478;-74
2024/04/08 07:18:25;;;;;;;6.38;1.35;;;;;;;;;;5422773;26;20032;-73
2024/04/08 07:20:55;;;;;;;3.17;1.40;;;;;;;;;;5422112;26;20019;-73
2024/04/08 07:23:28;;;;;;;3.58;1.27;;;;;;;;;;5423338;26;20023;-74
2024/04/08 07:25:59;;;;;;;1.33;1.23;;;;;;;;;;5409457;26;20041;-74
2024/04/08 07:28:29;;;;;;;1.60;1.25;;;;;;;;;;5407761;26;20047;-74
2024/04/08 07:31:00;;;;;;;1.90;1.38;;;;;;;;;;5407760;26;20032;-74
2024/04/08 07:33:30;;;;;;;4.30;1.40;;;;;;;;;;5407634;26;20477;-73
2024/04/08 07:36:01;;;;;;;2.03;1.60;;;;;;;;;;5409192;26;20036;-74
2024/04/08 07:38:32;;;;;;;6.60;1.50;;;;;;;;;;5407715;26;20019;-74
2024/04/08 07:41:03;;;;;;;5.28;1.38;;;;;;;;;;5407661;26;20033;-73
2024/04/08 07:43:34;;;;;;;3.90;1.42;;;;;;;;;;5407354;26;20486;-74
2024/04/08 07:46:07;;;;;;;7.40;1.48;;;;;;;;;;5406160;26;20027;-74
2024/04/08 07:48:37;;;;;;;3.13;1.92;;;;;;;;;;5407934;26;20031;-73
2024/04/08 07:51:08;;;;;;;6.63;1.70;;;;;;;;;;5408340;26;20024;-73
2024/04/08 07:53:38;;;;;;;2.88;1.67;;;;;;;;;;5405859;26;20019;-74
2024/04/08 07:56:09;;;;;;;5.10;1.75;;;;;;;;;;5407182;26;20024;-73
2024/04/08 07:58:40;;;;;;;2.63;1.90;;;;;;;;;;5407832;26;20019;-73
2024/04/08 08:01:10;;;;;;;3.80;1.90;;;;;;;;;;5407731;26;20019;-73
2024/04/08 08:03:41;;;;;;;3.63;1.50;;;;;;;;;;5407500;26;20023;-74
2024/04/08 08:06:14;;;;;;;3.15;2.10;;;;;;;;;;5407579;26;20027;-73
2024/04/08 08:08:45;;;;;;;4.82;2.00;;;;;;;;;;5407649;26;20035;-74
2024/04/08 08:11:15;;;;;;;5.60;2.00;;;;;;;;;;5407586;26;20470;-73
2024/04/08 08:13:46;;;;;;;11.98;2.63;;;;;;;;;;5407369;26;20047;-74
2024/04/08 08:16:17;;;;;;;3.58;1.92;;;;;;;;;;5406907;26;20036;-74
2024/04/08 08:18:48;;;;;;;3.45;2.13;;;;;;;;;;5406947;26;20043;-73
2024/04/08 08:21:19;;;;;;;8.60;2.08;;;;;;;;;;5405230;26;20014;-74
2024/04/08 08:23:50;;;;;;;3.67;2.30;;;;;;;;;;5407151;26;20466;-74
2024/04/08 08:26:20;;;;;;;4.75;2.17;;;;;;;;;;5407044;26;20027;-75
2024/04/08 08:28:51;;;;;;;3.05;2.00;;;;;;;;;;5407300;26;20031;-73
2024/04/08 08:31:22;;;;;;;2.92;2.00;;;;;;;;;;5407265;26;20032;-73
2024/04/08 08:33:52;;;;;;;3.03;1.77;;;;;;;;;;5407034;26;20035;-74
2024/04/08 08:36:24;;;;;;;3.83;2.03;;;;;;;;;;5407144;26;20024;-74
2024/04/08 08:38:54;;;;;;;3.60;1.70;;;;;;;;;;5407898;26;20019;-74
2024/04/08 08:41:30;;;;;;;2.08;1.88;;;;;;;;;;5407877;26;20023;-74
2024/04/08 08:44:02;;;;;;;4.20;1.73;;;;;;;;;;5406828;26;20024;-74
2024/04/08 08:46:33;;;;;;;2.78;1.92;;;;;;;;;;5406537;26;20462;-74
2024/04/08 08:49:05;;;;;;;2.30;1.67;;;;;;;;;;5406301;26;20023;-73
2024/04/08 08:51:37;;;;;;;2.47;1.80;;;;;;;;;;5406388;26;20358;-73
2024/04/08 08:54:09;;;;;;;9.15;2.17;;;;;;;;;;5407195;26;20048;-73
2024/04/08 08:56:41;;;;;;;3.65;1.55;;;;;;;;;;5407276;26;20052;-73
2024/04/08 08:59:15;;;;;;;4.97;1.90;;;;;;;;;;5406478;26;20023;-73
2024/04/08 09:01:46;;;;;;;5.60;1.60;;;;;;;;;;5406393;26;20031;-75
2024/04/08 09:04:19;;;;;;;4.95;1.77;;;;;;;;;;5406532;26;20039;-76
2024/04/08 09:06:55;;;;;;;3.08;1.60;;;;;;;;;;5405780;26;20023;-74
2024/04/08 09:09:26;;;;;;;3.22;1.40;;;;;;;;;;5405652;26;20024;-74
2024/04/08 09:11:56;;;;;;;2.78;1.60;;;;;;;;;;5406735;26;20038;-75
2024/04/08 09:14:30;;;;;;;4.43;1.40;;;;;;;;;;5406783;26;20031;-74
2024/04/08 09:17:11;;;;;;;1.92;1.55;;;;;;;;;;5406408;26;20028;-74
2024/04/08 09:19:41;;;;;;;4.03;1.38;;;;;;;;;;5406834;26;20031;-74
2024/04/08 09:22:14;;;;;;;4.47;1.42;;;;;;;;;;5406667;26;20031;-74
2024/04/08 09:24:44;;;;;;;8.63;3.30;;;;;;;;;;5406324;26;20019;-74
2024/04/08 09:27:14;;;;;;;12.15;6.13;;;;;;;;;;5406485;26;20552;-75
2024/04/08 09:29:46;;;;;;;6.13;1.80;;;;;;;;;;5406536;26;20505;-75
2024/04/08 09:32:17;;;;;;;7.80;2.00;;;;;;;;;;5406809;26;20482;-74
2024/04/08 09:34:48;;;;;;;9.13;2.03;;;;;;;;;;5406536;26;20002;-74
2024/04/08 09:37:21;;;;;;;2.38;1.73;;;;;;;;;;5404569;26;20043;-75
2024/04/08 09:39:53;;;;;;;7.25;1.63;;;;;;;;;;5404652;26;20035;-75
2024/04/08 09:42:26;;;;;;;7.65;2.13;;;;;;;;;;5406429;26;20028;-75
2024/04/08 09:44:58;;;;;;;5.20;2.65;;;;;;;;;;5404507;26;20023;-75
2024/04/08 09:47:29;;;;;;;5.07;2.10;;;;;;;;;;5404078;26;20006;-75
2024/04/08 09:50:01;;;;;;;3.83;2.00;;;;;;;;;;5405989;26;20377;-75
2024/04/08 09:52:34;;;;;;;7.15;2.88;;;;;;;;;;5407271;26;20039;-76
2024/04/08 09:55:09;;;;;;;3.72;2.30;;;;;;;;;;5407019;26;20035;-85
2024/04/08 09:57:43;;;;;;;4.47;2.40;;;;;;;;;;5406157;26;20372;-76
2024/04/08 10:00:18;;;;;;;7.43;2.20;;;;;;;;;;5407467;26;20023;-74
2024/04/08 10:02:55;;;;;;;5.90;2.20;;;;;;;;;;5404962;26;20023;-74
2024/04/08 10:05:27;;;;;;;5.43;2.03;;;;;;;;;;5406202;26;20028;-74
2024/04/08 10:07:59;;;;;;;5.20;2.15;;;;;;;;;;5406259;26;20019;-75
2024/04/08 10:10:35;;;;;;;4.93;2.15;;;;;;;;;;5406603;26;20044;-75
2024/04/08 10:13:09;;;;;;;5.82;2.00;;;;;;;;;;5405080;26;20020;-74
2024/04/08 10:15:43;;;;;;;3.95;2.05;;;;;;;;;;5405768;26;20028;-75
2024/04/08 10:18:14;;;;;;;9.55;3.22;;;;;;;;;;5405978;26;20028;-75
2024/04/08 10:20:45;;;;;;;3.60;1.90;;;;;;;;;;5404762;26;20028;-75
2024/04/08 10:23:20;;;;;;;3.72;1.83;;;;;;;;;;5403429;26;20509;-75
2024/04/08 10:25:51;;;;;;;4.43;1.75;;;;;;;;;;5404026;26;20024;-75
2024/04/08 10:28:25;;;;;;;5.03;2.35;;;;;;;;;;5405138;26;20031;-75
2024/04/08 10:31:02;;;;;;;3.30;1.80;;;;;;;;;;5404495;26;20027;-82
2024/04/08 10:33:34;;;;;;;7.90;2.50;;;;;;;;;;5405314;26;20028;-75
2024/04/08 10:36:06;;;;;;;4.20;1.48;;;;;;;;;;5405076;26;20031;-75
2024/04/08 10:38:37;;;;;;;2.75;2.40;;;;;;;;;;5406316;26;20031;-76
2024/04/08 10:41:08;;;;;;;8.35;2.60;;;;;;;;;;5404899;26;20019;-75
2024/04/08 10:43:39;;;;;;;6.03;3.33;;;;;;;;;;5404937;26;20031;-74
2024/04/08 10:46:17;;;;;;;5.57;2.97;;;;;;;;;;5405165;26;20028;-75
2024/04/08 10:48:48;;;;;;;7.38;3.22;;;;;;;;;;5404812;26;20027;-75
2024/04/08 10:51:18;;;;;;;7.40;3.35;;;;;;;;;;5404761;26;20027;-74
2024/04/08 10:53:52;;;;;;;8.90;3.67;;;;;;;;;;5403175;26;20020;-74
2024/04/08 10:56:24;;;;;;;4.43;3.30;;;;;;;;;;5404068;26;19995;-75
2024/04/08 10:58:54;;;;;;;4.50;3.22;;;;;;;;;;5403195;26;20659;-78
2024/04/08 11:01:25;;;;;;;5.65;3.17;;;;;;;;;;5406707;26;20031;-75
2024/04/08 11:03:58;;;;;;;8.02;3.05;;;;;;;;;;5408223;26;20023;-74
2024/04/08 11:06:29;;;;;;;4.68;2.92;;;;;;;;;;5406353;26;20012;-75
2024/04/08 11:09:00;;;;;;;4.97;3.08;;;;;;;;;;5407549;26;20024;-77
2024/04/08 11:11:33;;;;;;;5.43;2.70;;;;;;;;;;5408258;26;20020;-75
2024/04/08 11:14:03;;;;;;;6.97;3.25;;;;;;;;;;5407191;26;20019;-74
2024/04/08 11:16:34;;;;;;;5.72;2.97;;;;;;;;;;5406495;26;20006;-75
2024/04/08 11:19:06;;;;;;;9.57;3.97;;;;;;;;;;5407579;26;20027;-75
2024/04/08 11:21:36;;;;;;;12.50;4.18;;;;;;;;;;5406578;26;20027;-73
2024/04/08 11:24:11;;;;;;;5.57;3.80;;;;;;;;;;5407684;26;20019;-74
2024/04/08 11:26:43;;;;;;;6.82;4.47;;;;;;;;;;5407444;26;20031;-79
2024/04/08 11:29:27;;;;;;;6.32;4.25;;;;;;;;;;5407179;26;20023;-76
2024/04/08 11:31:58;;;;;;;7.97;5.38;;;;;;;;;;5407911;26;20023;-75
2024/04/08 11:34:29;;;;;;;11.60;5.60;;;;;;;;;;5404935;26;19995;-78
2024/04/08 11:37:02;;;;;;;21.33;6.43;;;;;;;;;;5405247;26;20000;-75
2024/04/08 11:39:32;;;;;;;15.88;6.22;;;;;;;;;;5407123;26;20328;-75
2024/04/08 11:42:03;;;;;;;9.52;5.47;;;;;;;;;;5407196;26;20019;-76
2024/04/08 11:44:35;;;;;;;8.30;5.50;;;;;;;;;;5407872;26;20027;-74
2024/04/08 11:47:06;;;;;;;8.48;4.75;;;;;;;;;;5407829;26;20027;-75
2024/04/08 11:49:38;;;;;;;5.85;4.30;;;;;;;;;;5407372;26;20047;-75
2024/04/08 11:52:12;;;;;;;5.70;4.10;;;;;;;;;;5407554;26;20463;-75
2024/04/08 11:54:42;;;;;;;5.78;3.42;;;;;;;;;;5407295;26;20035;-75
2024/04/08 11:57:29;;;;;;;5.50;2.88;;;;;;;;;;5405144;26;20006;-85
2024/04/08 12:00:00;;;;;;;4.75;2.75;;;;;;;;;;5406824;26;20019;-76
2024/04/08 12:02:38;;;;;;;5.03;2.70;;;;;;;;;;5406900;26;20130;-75
2024/04/08 12:05:09;;;;;;;2.97;2.35;;;;;;;;;;5407169;26;20019;-75
2024/04/08 12:07:40;;;;;;;2.53;1.65;;;;;;;;;;5407328;26;20024;-75
2024/04/08 12:10:12;;;;;;;3.65;1.98;;;;;;;;;;5408071;26;20023;-75
2024/04/08 12:12:43;;;;;;;4.20;2.83;;;;;;;;;;5407577;26;20023;-80
2024/04/08 12:15:18;;;;;;;4.72;1.83;;;;;;;;;;5406181;26;20023;-75
2024/04/08 12:17:49;;;;;;;5.18;1.70;;;;;;;;;;5406471;26;20023;-75
2024/04/08 12:20:20;;;;;;;4.82;2.05;;;;;;;;;;5406805;26;20028;-75
2024/04/08 12:22:51;;;;;;;6.82;2.10;;;;;;;;;;5407176;26;20019;-75
2024/04/08 12:25:23;;;;;;;3.50;1.45;;;;;;;;;;5407341;26;20477;-76
2024/04/08 12:27:55;;;;;;;3.08;1.50;;;;;;;;;;5406324;26;20498;-75
2024/04/08 12:30:28;;;;;;;5.35;1.30;;;;;;;;;;5404750;26;20135;-75
2024/04/08 12:32:58;;;;;;;4.57;1.38;;;;;;;;;;5406746;26;20114;-75
2024/04/08 12:35:29;;;;;;;5.82;1.05;;;;;;;;;;5406453;26;20031;-74
2024/04/08 12:38:01;;;;;;;1.20;1.10;;;;;;;;;;5407589;26;20032;-78
2024/04/08 12:40:33;;;;;;;3.55;1.63;;;;;;;;;;5404630;26;20028;-75
2024/04/08 12:43:04;;;;;;;6.78;1.30;;;;;;;;;;5405187;26;20028;-75
2024/04/08 12:45:36;;;;;;;3.22;1.50;;;;;;;;;;5406800;26;20036;-76
2024/04/08 12:48:07;;;;;;;1.95;1.10;;;;;;;;;;5407052;26;20024;-76
2024/04/08 12:50:41;;;;;;;3.00;1.10;;;;;;;;;;5406146;26;20664;-75
2024/04/08 12:53:17;;;;;;;1.38;1.08;;;;;;;;;;5406802;26;20481;-79
2024/04/08 12:55:50;;;;;;;6.57;1.42;;;;;;;;;;5407072;26;20486;-76
2024/04/08 12:58:22;;;;;;;1.85;1.17;;;;;;;;;;5406452;26;20027;-76
2024/04/08 13:00:53;;;;;;;1.00;0.90;;;;;;;;;;5406286;26;20019;-75
2024/04/08 13:03:24;;;;;;;3.33;1.23;;;;;;;;;;5406626;26;20040;-75
2024/04/08 13:05:55;;;;;;;1.85;1.13;;;;;;;;;;5406222;26;20027;-76
2024/04/08 13:08:26;;;;;;;1.45;0.90;;;;;;;;;;5406014;26;20341;-75
2024/04/08 13:10:58;;;;;;;2.25;0.98;;;;;;;;;;5404276;26;20047;-75
2024/04/08 13:13:37;;;;;;;1.33;0.93;;;;;;;;;;5406447;26;20035;-76
2024/04/08 13:16:11;;;;;;;1.40;1.02;;;;;;;;;;5406298;26;20020;-75
2024/04/08 13:18:44;;;;;;;2.95;1.05;;;;;;;;;;5406216;26;20040;-76
2024/04/08 13:21:15;;;;;;;5.40;2.28;;;;;;;;;;5406281;26;20361;-77
2024/04/08 13:23:45;;;;;;;2.75;1.00;;;;;;;;;;5404804;26;20031;-75
2024/04/08 13:26:15;;;;;;;3.60;1.15;;;;;;;;;;5406135;26;20035;-76
2024/04/08 13:28:46;;;;;;;1.98;1.20;;;;;;;;;;5406655;26;20538;-75
2024/04/08 13:31:17;;;;;;;4.90;1.33;;;;;;;;;;5406533;26;20027;-74
2024/04/08 13:33:47;;;;;;;4.85;1.20;;;;;;;;;;5406520;26;20470;-75
2024/04/08 13:36:19;;;;;;;2.97;1.15;;;;;;;;;;5405780;26;20055;-77
2024/04/08 13:38:52;;;;;;;2.58;1.27;;;;;;;;;;5406489;26;20023;-75
2024/04/08 13:41:30;;;;;;;2.45;1.13;;;;;;;;;;5405613;26;20031;-74
2024/04/08 13:44:00;;;;;;;4.93;1.30;;;;;;;;;;5405753;26;20023;-75
2024/04/08 13:46:30;;;;;;;1.45;0.98;;;;;;;;;;5405662;26;20027;-77
2024/04/08 13:49:02;;;;;;;2.05;1.02;;;;;;;;;;5404269;26;20385;-74
2024/04/08 13:51:34;;;;;;;2.50;1.00;;;;;;;;;;5403886;26;20023;-75
2024/04/08 13:54:04;;;;;;;3.10;0.90;;;;;;;;;;5405382;26;20027;-74
2024/04/08 13:56:34;;;;;;;2.55;1.42;;;;;;;;;;5405557;26;20031;-75
2024/04/08 13:59:06;;;;;;;2.55;1.08;;;;;;;;;;5406256;26;20025;-75
2024/04/08 14:01:37;;;;;;;2.03;1.00;;;;;;;;;;5405418;26;20031;-74
2024/04/08 14:04:08;;;;;;;1.65;0.90;;;;;;;;;;5406727;26;20027;-76
2024/04/08 14:06:45;;;;;;;2.65;0.85;;;;;;;;;;5406923;26;20039;-76
2024/04/08 14:09:15;;;;;;;3.80;2.40;;;;;;;;;;5408042;26;20043;-74
2024/04/08 14:11:50;;;;;;;4.60;1.30;;;;;;;;;;5405015;26;20130;-76
2024/04/08 14:14:25;;;;;;;4.22;1.08;;;;;;;;;;5404286;26;20006;-74
2024/04/08 14:16:56;;;;;;;1.10;1.00;;;;;;;;;;5403735;26;20362;-76
2024/04/08 14:19:35;;;;;;;6.00;1.58;;;;;;;;;;5377888;26;20019;-76
2024/04/08 14:22:06;;;;;;;2.47;0.90;;;;;;;;;;5405295;26;20023;-75
2024/04/08 14:24:37;;;;;;;5.25;1.17;;;;;;;;;;5373836;26;20048;-79
2024/04/08 14:27:10;;;;;;;1.17;0.90;;;;;;;;;;5404074;26;20010;-75
2024/04/08 14:29:44;;;;;;;1.08;1.00;;;;;;;;;;5404943;26;20023;-77
2024/04/08 14:32:30;;;;;;;1.73;1.10;;;;;;;;;;5405405;26;20024;-85
2024/04/08 14:35:01;;;;;;;2.10;1.00;;;;;;;;;;5407678;26;20032;-76
2024/04/08 14:37:31;;;;;;;1.48;1.10;;;;;;;;;;5406956;26;20008;-76
2024/04/08 14:40:26;;;;;;;2.42;1.17;;;;;;;;;;5406116;26;20027;-76
2024/04/08 14:42:57;;;;;;;0.82;0.82;;;;;;;;;;5406967;26;20036;-76
2024/04/08 14:46:00;;;;;;;1.50;1.00;;;;;;;;;;5405632;26;19995;-77
2024/04/08 14:49:01;;;;;;;3.10;1.10;;;;;;;;;;5408054;26;19996;-76
2024/04/08 14:51:32;;;;;;;2.75;1.27;;;;;;;;;;5405678;26;20006;-76
2024/04/08 14:54:10;;;;;;;1.40;0.90;;;;;;;;;;5407786;26;20028;-77
2024/04/08 14:56:43;;;;;;;3.72;1.35;;;;;;;;;;5408189;26;20040;-77
2024/04/08 14:59:17;;;;;;;2.90;1.20;;;;;;;;;;5406494;26;21260;-77
2024/04/08 15:01:48;;;;;;;3.40;1.40;;;;;;;;;;5406230;26;20514;-75
2024/04/08 15:04:21;;;;;;;7.82;3.42;;;;;;;;;;5408356;26;20466;-74
2024/04/08 15:06:53;;;;;;;4.28;2.47;;;;;;;;;;5409189;26;20569;-75